Campbells Island, Illinois
Current Conditions -  °F | °C
As of 1:52 PM on Thursday 18 Dec 2014 (Local Time) from KMLI Reporting Station
Scattered Clouds Scattered Clouds  
Wind Chill: 25°   Ceiling: Unl
Heat Index: 30°   Visibility: 10mi
Dew Point: 17°   Wind: 5mph
Humidity: 59%   Direction: 330°NNW
Pressure: 30.24"   Gusts: NA
Location:  41.5228°N, 90.3951°W
Report Text: KMLI 181952Z 33004KT 10SM SCT095 M01/M08 A3024 RMK AO2 SLP251 T10111083
Loading
Personal Weather Stations






























Interactive Weather Map New forecast layout! Learn more

10-Day Weather Forecast

Advertisements
Track Severe Weather on mobile